createdAt,value
2016-06-17T00:00:45.369Z,949.31
2016-06-17T00:01:45.389Z,949.37
2016-06-17T00:02:45.392Z,949.4
2016-06-17T00:03:45.395Z,949.44
2016-06-17T00:04:45.415Z,949.43
2016-06-17T00:05:45.419Z,949.33
2016-06-17T00:06:45.437Z,949.29
2016-06-17T00:07:45.456Z,949.24
2016-06-17T00:08:45.460Z,949.24
2016-06-17T00:09:45.478Z,949.3
2016-06-17T00:10:45.482Z,949.42
2016-06-17T00:11:45.485Z,949.4
2016-06-17T00:12:45.505Z,949.43
2016-06-17T00:13:45.524Z,949.52
2016-06-17T00:14:45.527Z,949.58
2016-06-17T00:15:45.531Z,949.6
2016-06-17T00:16:45.550Z,949.64
2016-06-17T00:17:45.553Z,949.65
2016-06-17T00:18:45.572Z,949.57
2016-06-17T00:19:45.576Z,949.6
2016-06-17T00:20:45.595Z,949.55
2016-06-17T00:21:45.599Z,949.54
2016-06-17T00:22:45.617Z,949.57
2016-06-17T00:23:45.621Z,949.61
2016-06-17T00:24:45.640Z,949.6
2016-06-17T00:25:45.659Z,949.53
2016-06-17T00:26:45.662Z,949.42
2016-06-17T00:27:45.666Z,949.3
2016-06-17T00:28:45.685Z,949.23
2016-06-17T00:29:45.688Z,949.27
2016-06-17T00:30:45.708Z,949.38
2016-06-17T00:31:45.726Z,949.55
2016-06-17T00:32:45.730Z,949.61
2016-06-17T00:33:45.733Z,949.6
2016-06-17T00:34:45.753Z,949.57
2016-06-17T00:35:45.772Z,949.48
2016-06-17T00:36:45.760Z,949.43
2016-06-17T00:37:45.779Z,949.43
2016-06-17T00:38:45.798Z,949.49
2016-06-17T00:39:45.801Z,949.51
2016-06-17T00:40:45.804Z,949.43
2016-06-17T00:41:45.824Z,949.47
2016-06-17T00:42:45.828Z,949.39
2016-06-17T00:43:45.862Z,949.32
2016-06-17T00:44:45.865Z,949.42
2016-06-17T00:45:45.868Z,949.47
2016-06-17T00:46:45.888Z,949.46
2016-06-17T00:47:45.892Z,949.48
2016-06-17T00:48:45.895Z,949.45
2016-06-17T00:49:45.913Z,949.46
2016-06-17T00:50:45.916Z,949.53
2016-06-17T00:51:45.935Z,949.53
2016-06-17T00:52:45.938Z,949.57
2016-06-17T00:53:45.957Z,949.58
2016-06-17T00:54:45.960Z,949.55
2016-06-17T00:55:45.978Z,949.57
2016-06-17T00:56:45.997Z,949.58
2016-06-17T00:57:46.001Z,949.61
2016-06-17T00:58:46.019Z,949.66
2016-06-17T00:59:46.023Z,949.71
2016-06-17T01:00:46.042Z,949.66
2016-06-17T01:01:46.045Z,949.63
2016-06-17T01:02:46.049Z,949.59
2016-06-17T01:03:46.068Z,949.63
2016-06-17T01:04:46.086Z,949.6
2016-06-17T01:05:46.075Z,949.63
2016-06-17T01:06:46.094Z,949.59
2016-06-17T01:07:46.097Z,949.56
2016-06-17T01:08:46.133Z,949.57
2016-06-17T01:09:46.136Z,949.58
2016-06-17T01:10:46.139Z,949.62
2016-06-17T01:11:46.158Z,949.63
2016-06-17T01:12:46.161Z,949.69
2016-06-17T01:13:46.195Z,949.69
2016-06-17T01:14:46.184Z,949.67
2016-06-17T01:15:46.203Z,949.71
2016-06-17T01:16:46.206Z,949.69
2016-06-17T01:17:46.225Z,949.71
2016-06-17T01:18:46.229Z,949.72
2016-06-17T01:19:46.248Z,949.77
2016-06-17T01:20:46.252Z,949.79
2016-06-17T01:21:46.271Z,949.82
2016-06-17T01:22:46.273Z,949.8
2016-06-17T01:23:46.278Z,949.82
2016-06-17T01:24:46.296Z,949.8
2016-06-17T01:25:46.316Z,949.73
2016-06-17T01:26:46.320Z,949.69
2016-06-17T01:27:46.323Z,949.64
2016-06-17T01:28:46.341Z,949.6
2016-06-17T01:29:46.345Z,949.58
2016-06-17T01:30:46.364Z,949.59
2016-06-17T01:31:46.368Z,949.62
2016-06-17T01:32:46.387Z,949.67
2016-06-17T01:33:46.389Z,949.73
2016-06-17T01:34:46.409Z,949.78
2016-06-17T01:35:46.413Z,949.81
2016-06-17T01:36:46.433Z,949.85
2016-06-17T01:37:46.436Z,949.8
2016-06-17T01:38:46.455Z,949.82
2016-06-17T01:39:46.457Z,949.78
2016-06-17T01:40:46.461Z,949.73
2016-06-17T01:41:46.481Z,949.69
2016-06-17T01:42:46.500Z,949.73
2016-06-17T01:43:46.504Z,949.75
2016-06-17T01:44:46.522Z,949.73
2016-06-17T01:45:46.525Z,949.72
2016-06-17T01:46:46.545Z,949.75
2016-06-17T01:47:46.549Z,949.79
2016-06-17T01:48:46.566Z,949.77
2016-06-17T01:49:46.570Z,949.81
2016-06-17T01:50:46.574Z,949.78
2016-06-17T01:51:46.593Z,949.76
2016-06-17T01:52:46.597Z,949.78
2016-06-17T01:53:46.616Z,949.78
2016-06-17T01:54:46.619Z,949.83
2016-06-17T01:55:46.638Z,949.87
2016-06-17T01:56:46.660Z,949.93
2016-06-17T01:57:46.665Z,950.01
2016-06-17T01:58:46.669Z,950.03
2016-06-17T01:59:46.690Z,950.12
2016-06-17T02:00:46.710Z,950.2
2016-06-17T02:01:46.714Z,950.26
2016-06-17T02:02:46.718Z,950.29
2016-06-17T02:03:46.738Z,950.34
2016-06-17T02:04:46.741Z,950.34
2016-06-17T02:05:46.760Z,950.3
2016-06-17T02:06:46.780Z,950.34
2016-06-17T02:07:46.784Z,950.33
2016-06-17T02:08:46.788Z,950.33
2016-06-17T02:09:46.807Z,950.42
2016-06-17T02:10:46.811Z,950.4
2016-06-17T02:11:46.830Z,950.43
2016-06-17T02:12:46.834Z,950.43
2016-06-17T02:13:46.852Z,950.47
2016-06-17T02:14:46.856Z,950.45
2016-06-17T02:15:46.875Z,950.48
2016-06-17T02:16:46.879Z,950.49
2016-06-17T02:17:46.898Z,950.5
2016-06-17T02:18:46.901Z,950.58
2016-06-17T02:19:46.904Z,950.55
2016-06-17T02:20:46.924Z,950.59
2016-06-17T02:21:46.943Z,950.61
2016-06-17T02:22:46.945Z,950.58
2016-06-17T02:23:46.965Z,950.6
2016-06-17T02:24:46.969Z,950.57
2016-06-17T02:25:46.988Z,950.55
2016-06-17T02:26:46.992Z,950.52
2016-06-17T02:27:47.011Z,950.53
2016-06-17T02:28:47.013Z,950.55
2016-06-17T02:29:47.033Z,950.57
2016-06-17T02:30:47.037Z,950.6
2016-06-17T02:31:47.040Z,950.64
2016-06-17T02:32:47.060Z,950.69
2016-06-17T02:33:47.062Z,950.78
2016-06-17T02:34:47.081Z,950.82
2016-06-17T02:35:47.085Z,950.82
2016-06-17T02:36:47.105Z,950.83
2016-06-17T02:37:47.107Z,950.83
2016-06-17T02:38:47.111Z,950.84
2016-06-17T02:39:47.130Z,950.8
2016-06-17T02:40:47.133Z,950.83
2016-06-17T02:41:47.153Z,950.79
2016-06-17T02:42:47.156Z,950.76
2016-06-17T02:43:47.175Z,950.75
2016-06-17T02:44:47.194Z,950.78
2016-06-17T02:45:47.198Z,950.78
2016-06-17T02:46:47.201Z,950.87
2016-06-17T02:47:47.220Z,950.83
2016-06-17T02:48:47.240Z,950.9
2016-06-17T02:49:47.243Z,950.87
2016-06-17T02:50:47.262Z,950.91
2016-06-17T02:51:47.265Z,950.92
2016-06-17T02:52:47.268Z,950.9
2016-06-17T02:53:47.288Z,950.85
2016-06-17T02:54:47.307Z,950.82
2016-06-17T02:55:47.310Z,950.82
2016-06-17T02:56:47.329Z,950.83
2016-06-17T02:57:47.317Z,950.85
2016-06-17T02:58:47.336Z,950.85
2016-06-17T02:59:47.356Z,950.83
2016-06-17T03:00:47.374Z,950.8
2016-06-17T03:01:47.378Z,950.83
2016-06-17T03:02:47.381Z,950.87
2016-06-17T03:03:47.401Z,950.83
2016-06-17T03:04:47.404Z,950.84
2016-06-17T03:05:47.424Z,950.88
2016-06-17T03:06:47.427Z,950.92
2016-06-17T03:07:47.430Z,951.02
2016-06-17T03:08:47.449Z,951.04
2016-06-17T03:09:47.452Z,951.05
2016-06-17T03:10:47.472Z,951.07
2016-06-17T03:11:47.490Z,951.1
2016-06-17T03:12:47.494Z,951.17
2016-06-17T03:13:47.513Z,951.2
2016-06-17T03:14:47.517Z,951.15
2016-06-17T03:15:47.520Z,951.14
2016-06-17T03:16:47.540Z,951.11
2016-06-17T03:17:47.543Z,951.1
2016-06-17T03:18:47.561Z,951.08
2016-06-17T03:19:47.565Z,951.07
2016-06-17T03:20:47.584Z,951.1
2016-06-17T03:21:47.588Z,951.08
2016-06-17T03:22:47.608Z,951.07
2016-06-17T03:23:47.611Z,951.07
2016-06-17T03:24:47.629Z,951.13
2016-06-17T03:25:47.633Z,951.16
2016-06-17T03:26:47.652Z,951.18
2016-06-17T03:27:47.656Z,951.19
2016-06-17T03:28:47.674Z,951.19
2016-06-17T03:29:47.678Z,951.1
2016-06-17T03:30:47.697Z,951.05
2016-06-17T03:31:47.700Z,951
2016-06-17T03:32:47.720Z,951.07
2016-06-17T03:33:47.723Z,951.08
2016-06-17T03:34:47.726Z,951.12
2016-06-17T03:35:47.746Z,951.13
2016-06-17T03:36:47.748Z,951.15
2016-06-17T03:37:47.768Z,951.14
2016-06-17T03:38:47.788Z,951.16
2016-06-17T03:39:47.776Z,951.19
2016-06-17T03:40:47.794Z,951.26
2016-06-17T03:41:47.798Z,951.24
2016-06-17T03:42:47.832Z,951.27
2016-06-17T03:43:47.836Z,951.29
2016-06-17T03:44:47.840Z,951.33
2016-06-17T03:45:47.858Z,951.34
2016-06-17T03:46:47.862Z,951.39
2016-06-17T03:47:47.881Z,951.38
2016-06-17T03:48:47.885Z,951.42
2016-06-17T03:49:47.903Z,951.45
2016-06-17T03:50:47.907Z,951.43
2016-06-17T03:51:47.926Z,951.49
2016-06-17T03:52:47.929Z,951.6
2016-06-17T03:53:47.933Z,951.55
2016-06-17T03:54:47.952Z,951.6
2016-06-17T03:55:47.971Z,951.56
2016-06-17T03:56:47.975Z,951.55
2016-06-17T03:57:47.994Z,951.57
2016-06-17T03:58:47.997Z,951.58
2016-06-17T03:59:48.000Z,951.53
2016-06-17T04:00:48.020Z,951.57
2016-06-17T04:01:48.023Z,951.55
2016-06-17T04:02:48.042Z,951.55
2016-06-17T04:03:48.045Z,951.6
2016-06-17T04:04:48.064Z,951.62
2016-06-17T04:05:48.068Z,951.62
2016-06-17T04:06:48.088Z,951.63
2016-06-17T04:07:48.091Z,951.66
2016-06-17T04:08:48.109Z,951.6
2016-06-17T04:09:48.113Z,951.62
2016-06-17T04:10:48.132Z,951.66
2016-06-17T04:11:48.152Z,951.72
2016-06-17T04:12:48.142Z,951.66
2016-06-17T04:13:48.165Z,951.72
2016-06-17T04:14:48.187Z,951.69
2016-06-17T04:15:48.194Z,951.68
2016-06-17T04:16:48.200Z,951.69
2016-06-17T04:17:48.222Z,951.68
2016-06-17T04:18:48.241Z,951.73
2016-06-17T04:19:48.246Z,951.76
2016-06-17T04:20:48.250Z,951.74
2016-06-17T04:21:48.271Z,951.79
2016-06-17T04:22:48.276Z,951.8
2016-06-17T04:23:48.295Z,951.82
2016-06-17T04:24:48.299Z,951.86
2016-06-17T04:25:48.318Z,951.88
2016-06-17T04:26:48.321Z,951.87
2016-06-17T04:27:48.341Z,951.9
2016-06-17T04:28:48.345Z,951.89
2016-06-17T04:29:48.365Z,951.92
2016-06-17T04:30:48.369Z,952.01
2016-06-17T04:31:48.387Z,951.99
2016-06-17T04:32:48.392Z,952.03
2016-06-17T04:33:48.410Z,952.03
2016-06-17T04:34:48.414Z,951.99
2016-06-17T04:35:48.433Z,952.01
2016-06-17T04:36:48.437Z,952.02
2016-06-17T04:37:48.455Z,951.99
2016-06-17T04:38:48.459Z,952.08
2016-06-17T04:39:48.478Z,952.07
2016-06-17T04:40:48.482Z,952.11
2016-06-17T04:41:48.501Z,952.17
2016-06-17T04:42:48.503Z,952.15
2016-06-17T04:43:48.507Z,952.19
2016-06-17T04:44:48.526Z,952.18
2016-06-17T04:45:48.531Z,952.16
2016-06-17T04:46:48.550Z,952.16
2016-06-17T04:47:48.569Z,952.17
2016-06-17T04:48:48.571Z,952.14
2016-06-17T04:49:48.575Z,952.13
2016-06-17T04:50:48.594Z,952.14
2016-06-17T04:51:48.598Z,952.13
2016-06-17T04:52:48.617Z,952.1
2016-06-17T04:53:48.620Z,952.12
2016-06-17T04:54:48.639Z,952.15
2016-06-17T04:55:48.643Z,952.1
2016-06-17T04:56:48.663Z,952.12
2016-06-17T04:57:48.666Z,952.14
2016-06-17T04:58:48.685Z,952.18
2016-06-17T04:59:48.687Z,952.2
2016-06-17T05:00:48.691Z,952.21
2016-06-17T05:01:48.711Z,952.25
2016-06-17T05:02:48.730Z,952.29
2016-06-17T05:03:48.734Z,952.28
2016-06-17T05:04:48.737Z,952.39
2016-06-17T05:05:48.755Z,952.33
2016-06-17T05:06:48.759Z,952.38
2016-06-17T05:07:48.779Z,952.37
2016-06-17T05:08:48.797Z,952.42
2016-06-17T05:09:48.786Z,952.48
2016-06-17T05:10:48.803Z,952.53
2016-06-17T05:11:48.823Z,952.57
2016-06-17T05:12:48.827Z,952.57
2016-06-17T05:13:48.846Z,952.59
2016-06-17T05:14:48.850Z,952.58
2016-06-17T05:15:48.868Z,952.61
2016-06-17T05:16:48.871Z,952.63
2016-06-17T05:17:48.891Z,952.63
2016-06-17T05:18:48.894Z,952.68
2016-06-17T05:19:48.914Z,952.65
2016-06-17T05:20:48.918Z,952.64
2016-06-17T05:21:48.935Z,952.69
2016-06-17T05:22:48.939Z,952.72
2016-06-17T05:23:48.942Z,952.67
2016-06-17T05:24:48.962Z,952.74
2016-06-17T05:25:48.966Z,952.79
2016-06-17T05:26:48.984Z,952.78
2016-06-17T05:27:48.988Z,952.82
2016-06-17T05:28:49.007Z,952.81
2016-06-17T05:29:49.011Z,952.82
2016-06-17T05:30:49.030Z,952.84
2016-06-17T05:31:49.034Z,952.84
2016-06-17T05:32:49.052Z,952.85
2016-06-17T05:33:49.055Z,952.85
2016-06-17T05:34:49.075Z,952.81
2016-06-17T05:35:49.094Z,952.85
2016-06-17T05:36:49.098Z,952.85
2016-06-17T05:37:49.101Z,952.88
2016-06-17T05:38:49.105Z,952.85
2016-06-17T05:39:49.123Z,952.89
2016-06-17T05:40:49.142Z,952.88
2016-06-17T05:41:49.146Z,952.91
2016-06-17T05:42:49.164Z,952.93
2016-06-17T05:43:49.168Z,952.94
2016-06-17T05:44:49.187Z,952.99
2016-06-17T05:45:49.191Z,952.97
2016-06-17T05:46:49.210Z,953.06
2016-06-17T05:47:49.214Z,953.09
2016-06-17T05:48:49.232Z,953.11
2016-06-17T05:49:49.236Z,953.09
2016-06-17T05:50:49.239Z,953.14
2016-06-17T05:51:49.258Z,953.17
2016-06-17T05:52:49.262Z,953.14
2016-06-17T05:53:49.281Z,953.16
2016-06-17T05:54:49.285Z,953.2
2016-06-17T05:55:49.303Z,953.2
2016-06-17T05:56:49.307Z,953.18
2016-06-17T05:57:49.326Z,953.16
2016-06-17T05:58:49.329Z,953.19
2016-06-17T05:59:49.349Z,953.19
2016-06-17T06:00:49.351Z,953.18
2016-06-17T06:01:49.371Z,953.17
2016-06-17T06:02:49.375Z,953.18
2016-06-17T06:03:49.378Z,953.18
2016-06-17T06:04:49.397Z,953.25
2016-06-17T06:05:49.400Z,953.24
2016-06-17T06:06:49.419Z,953.28
2016-06-17T06:07:49.439Z,953.33
2016-06-17T06:08:49.443Z,953.34
2016-06-17T06:09:49.461Z,953.35
2016-06-17T06:10:49.480Z,953.4
2016-06-17T06:11:49.483Z,953.43
2016-06-17T06:12:49.487Z,953.42
2016-06-17T06:13:49.491Z,953.54
2016-06-17T06:14:49.510Z,953.48
2016-06-17T06:15:49.513Z,953.6
2016-06-17T06:16:49.532Z,953.54
2016-06-17T06:17:49.535Z,953.66
2016-06-17T06:18:49.555Z,953.61
2016-06-17T06:19:49.559Z,953.69
2016-06-17T06:20:49.577Z,953.71
2016-06-17T06:21:49.582Z,953.72
2016-06-17T06:22:49.599Z,953.68
2016-06-17T06:23:49.603Z,953.73
2016-06-17T06:24:49.623Z,953.73
2016-06-17T06:25:49.626Z,953.75
2016-06-17T06:26:49.646Z,953.72
2016-06-17T06:27:49.649Z,953.72
2016-06-17T06:28:49.653Z,953.74
2016-06-17T06:29:49.676Z,953.76
2016-06-17T06:30:49.701Z,953.79
2016-06-17T06:31:49.709Z,953.78
2016-06-17T06:32:49.733Z,953.81
2016-06-17T06:33:49.741Z,953.8
2016-06-17T06:34:49.746Z,953.82
2016-06-17T06:35:49.767Z,953.84
2016-06-17T06:36:49.772Z,953.87
2016-06-17T06:37:49.792Z,953.91
2016-06-17T06:38:49.798Z,953.94
2016-06-17T06:39:49.802Z,953.94
2016-06-17T06:40:49.822Z,953.95
2016-06-17T06:41:49.825Z,954
2016-06-17T06:42:49.846Z,953.97
2016-06-17T06:43:49.850Z,954
2016-06-17T06:44:49.869Z,954.03
2016-06-17T06:45:49.873Z,954.05
2016-06-17T06:46:49.891Z,954.03
2016-06-17T06:47:49.911Z,954.08
2016-06-17T06:48:49.914Z,954.06
2016-06-17T06:49:49.917Z,954.05
2016-06-17T06:50:49.936Z,954.1
2016-06-17T06:51:49.939Z,954.11
2016-06-17T06:52:49.959Z,954.12
2016-06-17T06:53:49.963Z,954.12
2016-06-17T06:54:49.982Z,954.12
2016-06-17T06:55:49.986Z,954.16
2016-06-17T06:56:50.003Z,954.17
2016-06-17T06:57:50.007Z,954.2
2016-06-17T06:58:50.027Z,954.19
2016-06-17T06:59:50.030Z,954.14
2016-06-17T07:00:50.050Z,954.17
2016-06-17T07:01:50.053Z,954.17
2016-06-17T07:02:50.071Z,954.21
2016-06-17T07:03:50.074Z,954.22
2016-06-17T07:04:50.078Z,954.23
2016-06-17T07:05:50.098Z,954.3
2016-06-17T07:06:50.117Z,954.31
2016-06-17T07:07:50.119Z,954.28
2016-06-17T07:08:50.123Z,954.28
2016-06-17T07:09:50.142Z,954.33
2016-06-17T07:10:50.146Z,954.29
2016-06-17T07:11:50.166Z,954.3
2016-06-17T07:12:50.169Z,954.33
2016-06-17T07:13:50.204Z,954.31
2016-06-17T07:14:50.191Z,954.31
2016-06-17T07:15:50.194Z,954.35
2016-06-17T07:16:50.214Z,954.33
2016-06-17T07:17:50.234Z,954.37
2016-06-17T07:18:50.236Z,954.38
2016-06-17T07:19:50.256Z,954.38
2016-06-17T07:20:50.258Z,954.34
2016-06-17T07:21:50.262Z,954.35
2016-06-17T07:22:50.282Z,954.38
2016-06-17T07:23:50.286Z,954.33
2016-06-17T07:24:50.304Z,954.38
2016-06-17T07:25:50.307Z,954.39
2016-06-17T07:26:50.326Z,954.39
2016-06-17T07:27:50.330Z,954.4
2016-06-17T07:28:50.350Z,954.41
2016-06-17T07:29:50.383Z,954.44
2016-06-17T07:30:50.372Z,954.42
2016-06-17T07:31:50.390Z,954.42
2016-06-17T07:32:50.394Z,954.45
2016-06-17T07:33:50.398Z,954.5
2016-06-17T07:34:50.418Z,954.5
2016-06-17T07:35:50.436Z,954.48
2016-06-17T07:36:50.439Z,954.54
2016-06-17T07:37:50.442Z,954.57
2016-06-17T07:38:50.462Z,954.56
2016-06-17T07:39:50.465Z,954.57
2016-06-17T07:40:50.484Z,954.57
2016-06-17T07:41:50.488Z,954.6
2016-06-17T07:42:50.506Z,954.66
2016-06-17T07:43:50.510Z,954.58
2016-06-17T07:44:50.530Z,954.59
2016-06-17T07:45:50.533Z,954.67
2016-06-17T07:46:50.537Z,954.56
2016-06-17T07:47:50.540Z,954.64
2016-06-17T07:48:50.559Z,954.63
2016-06-17T07:49:50.562Z,954.65
2016-06-17T07:50:50.581Z,954.71
2016-06-17T07:51:50.585Z,954.74
2016-06-17T07:52:50.605Z,954.75
2016-06-17T07:53:50.608Z,954.75
2016-06-17T07:54:50.626Z,954.76
2016-06-17T07:55:50.630Z,954.78
2016-06-17T07:56:50.633Z,954.82
2016-06-17T07:57:50.653Z,954.88
2016-06-17T07:58:50.703Z,954.83
2016-06-17T07:59:50.660Z,954.88
2016-06-17T08:05:00.334Z,954.94
2016-06-17T08:06:00.338Z,955
2016-06-17T08:07:00.356Z,954.96
2016-06-17T08:08:00.375Z,955.05
2016-06-17T08:09:00.379Z,954.98
2016-06-17T08:10:00.382Z,955.06
2016-06-17T08:11:00.402Z,955.03
2016-06-17T08:12:00.406Z,955.03
2016-06-17T08:13:00.407Z,955.05
2016-06-17T08:14:00.427Z,955.14
2016-06-17T08:15:00.430Z,955.01
2016-06-17T08:16:00.434Z,955.05
2016-06-17T08:17:00.453Z,955.13
2016-06-17T08:18:00.457Z,955.12
2016-06-17T08:19:00.476Z,955.08
2016-06-17T08:20:00.495Z,955.11
2016-06-17T08:21:00.498Z,955.08
2016-06-17T08:22:00.502Z,955.09
2016-06-17T08:23:00.505Z,955.12
2016-06-17T08:24:00.525Z,955.08
2016-06-17T08:25:00.528Z,955.12
2016-06-17T08:26:00.547Z,955.18
2016-06-17T08:27:00.550Z,955.18
2016-06-17T08:28:00.554Z,955.18
2016-06-17T08:29:00.573Z,955.19
2016-06-17T08:30:00.592Z,955.22
2016-06-17T08:31:00.595Z,955.23
2016-06-17T08:32:00.599Z,955.25
2016-06-17T08:33:00.619Z,955.29
2016-06-17T08:34:00.622Z,955.32
2016-06-17T08:35:00.642Z,955.28
2016-06-17T08:36:00.644Z,955.29
2016-06-17T08:37:00.663Z,955.33
2016-06-17T08:38:00.667Z,955.34
2016-06-17T08:39:00.670Z,955.33
2016-06-17T08:40:00.690Z,955.35
2016-06-17T08:41:00.693Z,955.37
2016-06-17T08:42:00.712Z,955.4
2016-06-17T08:43:00.716Z,955.33
2016-06-17T08:44:00.734Z,955.37
2016-06-17T08:44:23.156Z,955.43
2016-06-17T08:45:23.176Z,955.51
2016-06-17T08:46:23.179Z,955.5
2016-06-17T08:47:23.199Z,955.48
2016-06-17T08:48:23.202Z,955.52
2016-06-17T08:49:23.206Z,955.53
2016-06-17T08:50:23.225Z,955.49
2016-06-17T08:51:23.229Z,955.55
2016-06-17T08:52:23.249Z,955.59
2016-06-17T08:53:23.378Z,955.53
2016-06-17T08:54:23.270Z,955.52
2016-06-17T08:55:23.290Z,955.59
2016-06-17T08:56:23.294Z,955.6
2016-06-17T08:57:23.297Z,955.63
2016-06-17T08:58:23.317Z,955.63
2016-06-17T08:59:23.335Z,955.64
2016-06-17T09:00:23.339Z,955.71
2016-06-17T09:01:23.342Z,955.74
2016-06-17T09:02:23.362Z,955.75
2016-06-17T09:03:23.381Z,955.75
2016-06-17T09:04:23.384Z,955.78
2016-06-17T09:05:23.404Z,955.82
2016-06-17T09:06:23.407Z,955.79
2016-06-17T09:07:23.426Z,955.81
2016-06-17T09:08:23.430Z,955.88
2016-06-17T09:09:23.448Z,955.87
2016-06-17T09:16:23.501Z,955.99
2016-06-17T09:17:23.521Z,956.04
2016-06-17T09:24:20.660Z,956.05
2016-06-17T09:25:20.678Z,956.04
2016-06-17T09:26:20.682Z,956.07
2016-06-17T09:27:20.702Z,956.09
2016-06-17T09:28:20.705Z,956.07
2016-06-17T09:29:20.725Z,956.11
2016-06-17T09:30:20.728Z,956.11
2016-06-17T09:31:20.746Z,956.14
2016-06-17T09:32:20.750Z,956.14
2016-06-17T09:33:20.770Z,956.17
2016-06-17T09:34:20.773Z,956.17
2016-06-17T09:35:20.793Z,956.21
2016-06-17T09:36:20.796Z,956.23
2016-06-17T09:37:20.814Z,956.21
2016-06-17T09:38:20.818Z,956.19
2016-06-17T09:39:20.822Z,956.26
2016-06-17T09:40:20.841Z,956.17
2016-06-17T09:41:20.846Z,956.25
2016-06-17T09:42:20.865Z,956.25
2016-06-17T09:43:20.870Z,956.3
2016-06-17T09:44:20.891Z,956.28
2016-06-17T09:45:20.896Z,956.28
2016-06-17T09:46:20.916Z,956.25
2016-06-17T09:47:20.920Z,956.29
2016-06-17T09:48:20.938Z,956.34
2016-06-17T09:49:20.959Z,956.25
2016-06-17T09:50:20.962Z,956.29
2016-06-17T09:51:20.982Z,956.34
2016-06-17T09:52:20.985Z,956.36
2016-06-17T09:53:21.004Z,956.39
2016-06-17T09:54:21.007Z,956.39
2016-06-17T09:55:21.011Z,956.4
2016-06-17T09:56:21.030Z,956.47
2016-06-17T09:57:21.033Z,956.44
2016-06-17T09:58:21.055Z,956.43
2016-06-17T09:59:21.061Z,956.54
2016-06-17T10:00:21.082Z,956.53
2016-06-17T10:01:21.105Z,956.51
2016-06-17T10:02:21.110Z,956.46
2016-06-17T10:03:21.115Z,956.49
2016-06-17T10:04:21.135Z,956.51
2016-06-17T10:05:21.139Z,956.51
2016-06-17T10:06:21.159Z,956.48
2016-06-17T10:07:21.163Z,956.54
2016-06-17T10:08:21.166Z,956.56
2016-06-17T10:09:21.187Z,956.59
2016-06-17T10:10:21.206Z,956.56
2016-06-17T10:11:21.210Z,956.63
2016-06-17T10:12:21.229Z,956.6
2016-06-17T10:13:21.233Z,956.62
2016-06-17T10:14:21.251Z,956.67
2016-06-17T10:15:21.256Z,956.63
2016-06-17T10:16:21.276Z,956.63
2016-06-17T10:17:21.280Z,956.61
2016-06-17T10:18:21.300Z,956.6
2016-06-17T10:19:21.304Z,956.65
2016-06-17T10:20:21.308Z,956.65
2016-06-17T10:21:21.327Z,956.72
2016-06-17T10:22:21.331Z,956.75
2016-06-17T10:23:21.351Z,956.75
2016-06-17T10:24:21.371Z,956.75
2016-06-17T10:25:21.374Z,956.76
2016-06-17T10:26:21.392Z,956.76
2016-06-17T10:27:21.396Z,956.69
2016-06-17T10:28:21.416Z,956.77
2016-06-17T10:29:21.434Z,956.8
2016-06-17T10:30:21.437Z,956.83
2016-06-17T10:31:21.441Z,956.84
2016-06-17T10:32:21.460Z,956.85
2016-06-17T10:33:21.479Z,956.96
2016-06-17T10:34:21.483Z,956.9
2016-06-17T10:35:21.487Z,956.92
2016-06-17T10:36:21.505Z,956.88
2016-06-17T10:37:21.509Z,956.92
2016-06-17T10:38:21.512Z,956.96
2016-06-17T10:39:21.532Z,956.93
2016-06-17T10:40:21.551Z,956.99
2016-06-17T10:41:21.554Z,956.92
2016-06-17T10:42:21.573Z,956.94
2016-06-17T10:43:21.577Z,956.94
2016-06-17T10:44:21.596Z,956.98
2016-06-17T10:45:21.599Z,956.95
2016-06-17T10:46:21.618Z,956.92
2016-06-17T10:47:21.621Z,956.95
2016-06-17T10:48:21.640Z,956.97
2016-06-17T10:49:21.676Z,956.94
2016-06-17T10:50:21.665Z,957
2016-06-17T10:51:21.669Z,956.96
2016-06-17T10:52:21.688Z,956.93
2016-06-17T10:53:21.692Z,956.95
2016-06-17T10:54:21.713Z,956.96
2016-06-17T10:55:21.716Z,956.92
2016-06-17T10:56:21.735Z,956.99
2016-06-17T10:57:21.738Z,956.99
2016-06-17T10:58:21.756Z,957
2016-06-17T10:59:21.823Z,956.99
2016-06-17T11:00:21.780Z,957.01
2016-06-17T11:01:21.783Z,957.03
2016-06-17T11:02:21.802Z,956.89
2016-06-17T11:03:21.805Z,957.04
2016-06-17T11:04:21.824Z,957.07
2016-06-17T11:05:21.829Z,957.01
2016-06-17T11:06:21.847Z,957.09
2016-06-17T11:07:21.848Z,957.06
2016-06-17T11:08:21.866Z,957.07
2016-06-17T11:09:21.884Z,957.1
2016-06-17T11:10:21.887Z,957.11
2016-06-17T11:11:21.906Z,957.08
2016-06-17T11:12:21.909Z,957.06
2016-06-17T11:13:21.927Z,957.03
2016-06-17T11:14:21.930Z,957.1
2016-06-17T11:15:21.949Z,957.04
2016-06-17T11:16:21.967Z,957.05
2016-06-17T11:17:21.971Z,957.01
2016-06-17T11:18:21.971Z,957.08
2016-06-17T11:19:21.990Z,957.08
2016-06-17T11:20:21.994Z,957.09
2016-06-17T11:21:22.014Z,957.03
2016-06-17T11:22:22.016Z,957.09
2016-06-17T11:23:22.035Z,957.12
2016-06-17T11:24:22.383Z,957.08
2016-06-17T11:25:22.058Z,957.11
2016-06-17T11:26:22.062Z,957.13
2016-06-17T11:27:22.377Z,957.2
2016-06-17T11:28:22.084Z,957.18
2016-06-17T11:29:22.103Z,957.2
2016-06-17T11:30:22.122Z,957.25
2016-06-17T11:31:22.126Z,957.25
2016-06-17T11:32:22.144Z,957.28
2016-06-17T11:33:22.147Z,957.29
2016-06-17T11:34:22.168Z,957.33
2016-06-17T11:35:22.171Z,957.34
2016-06-17T11:36:22.174Z,957.29
2016-06-17T11:37:22.194Z,957.31
2016-06-17T11:38:22.197Z,957.29
2016-06-17T11:39:22.513Z,957.28
2016-06-17T11:40:22.220Z,957.27
2016-06-17T11:41:22.441Z,957.24
2016-06-17T11:42:22.258Z,957.22
2016-06-17T11:43:22.619Z,957.3
2016-06-17T11:44:22.372Z,957.22
2016-06-17T11:45:22.282Z,957.23
2016-06-17T11:46:22.285Z,957.22
2016-06-17T11:47:22.507Z,957.22
2016-06-17T11:48:22.321Z,957.2
2016-06-17T11:49:22.325Z,957.2
2016-06-17T11:50:22.688Z,957.21
2016-06-17T11:51:22.347Z,957.24
2016-06-17T11:52:22.570Z,957.26
2016-06-17T11:53:22.370Z,957.3
2016-06-17T11:54:22.388Z,957.37
2016-06-17T11:55:22.752Z,957.31
2016-06-17T11:56:22.568Z,957.26
2016-06-17T11:57:22.431Z,957.23
2016-06-17T11:58:22.435Z,957.31
2016-06-17T11:59:22.656Z,957.31
2016-06-17T12:00:22.456Z,957.24
2016-06-17T12:01:22.663Z,957.25
2016-06-17T12:02:22.479Z,957.32
2016-06-17T12:03:22.748Z,957.38
2016-06-17T12:04:22.549Z,957.34
2016-06-17T12:05:22.505Z,957.34
2016-06-17T12:06:22.821Z,957.35
2016-06-17T12:07:22.544Z,957.33
2016-06-17T12:08:22.562Z,957.28
2016-06-17T12:09:22.769Z,957.38
2016-06-17T12:10:22.569Z,957.35
2016-06-17T12:11:22.589Z,957.38
2016-06-17T12:12:22.701Z,957.37
2016-06-17T12:13:22.611Z,957.29
2016-06-17T12:14:22.615Z,957.33
2016-06-17T12:15:22.634Z,957.36
2016-06-17T12:16:22.844Z,957.34
2016-06-17T12:17:22.663Z,957.41
2016-06-17T12:18:22.872Z,957.43
2016-06-17T12:19:22.691Z,957.41
2016-06-17T12:20:22.961Z,957.4
2016-06-17T12:21:22.717Z,957.44
2016-06-17T12:22:22.737Z,957.44
2016-06-17T12:23:22.789Z,957.41
2016-06-17T12:24:22.761Z,957.36
2016-06-17T12:25:22.765Z,957.44
2016-06-17T12:26:22.769Z,957.44
2016-06-17T12:27:22.789Z,957.45
2016-06-17T12:28:22.809Z,957.41
2016-06-17T12:29:22.813Z,957.41
2016-06-17T12:30:23.020Z,957.36
2016-06-17T12:31:22.835Z,957.36
2016-06-17T12:32:22.855Z,957.4
2016-06-17T12:33:23.154Z,957.4
2016-06-17T12:34:22.861Z,957.32
2016-06-17T12:35:23.193Z,957.4
2016-06-17T12:36:22.993Z,957.36
2016-06-17T12:37:22.903Z,957.4
2016-06-17T12:38:23.078Z,957.43
2016-06-17T12:39:22.925Z,957.39
2016-06-17T12:40:22.944Z,957.3
2016-06-17T12:41:22.964Z,957.34
2016-06-17T12:42:22.967Z,957.4
2016-06-17T12:43:23.236Z,957.42
2016-06-17T12:44:22.990Z,957.41
2016-06-17T12:45:23.008Z,957.37
2016-06-17T12:46:23.012Z,957.36
2016-06-17T12:47:23.031Z,957.4